New Wren, Mississippi
Current Conditions -  °F | °C
As of 2:35 AM on Tuesday 27 Jan 2015 (Local Time) from KM40 Reporting Station
Haze Haze  
Wind Chill: 32°   Ceiling: Unl
Heat Index: 32°   Visibility: 5mi
Dew Point: 25°   Wind: 0mph
Humidity: 75%   Direction: NA
Pressure: 29.97"   Gusts: NA
Location:  33.8251°N, 88.6185°W
Report Text: KM40 270835Z AUTO 00000KT 5SM HZ CLR 00/M04 A2997 RMK AO2
Loading
Personal Weather Stations






























Interactive Weather Map New forecast layout! Learn more

10-Day Weather Forecast

Advertisements
Track Severe Weather on mobile